Time;durP1;ratioP1;P1;durP2;ratioP2;P2;SDS_P1;SDS_P2;PMS_P1;PMS_P2;Temp;Humidity;BMP_temperature;BMP_pressure;BME280_temperature;BME280_humidity;BME280_pressure;Samples;Min_cycle;Max_cycle;Signal;HPM_P1;HPM_P2
2022/01/28 00:00:53;;;;;;;88.05;28.60;;;5.50;91.90;;;;;;6240922;23;20012;-64
2022/01/28 00:03:19;;;;;;;66.82;27.00;;;5.50;92.00;;;;;;6241019;23;20058;-62
2022/01/28 00:05:44;;;;;;;84.70;28.70;;;5.50;92.00;;;;;;6239637;23;20012;-61
2022/01/28 00:08:10;;;;;;;71.57;26.05;;;5.50;92.00;;;;;;6240340;23;20019;-61
2022/01/28 00:10:38;;;;;;;72.50;24.30;;;5.50;92.00;;;;;;6215173;23;20329;-62
2022/01/28 00:37:09;;;;;;;80.88;26.83;;;5.40;92.20;;;;;;6241205;23;20027;-62
2022/01/28 00:39:34;;;;;;;72.28;25.35;;;5.40;92.20;;;;;;6192014;23;20004;-64
2022/01/28 00:42:00;;;;;;;78.68;26.15;;;5.40;92.20;;;;;;6213014;23;20000;-60
2022/01/28 00:44:25;;;;;;;50.92;23.13;;;5.40;92.20;;;;;;6239358;23;20320;-61
2022/01/28 00:46:51;;;;;;;66.90;24.95;;;5.40;92.20;;;;;;6239911;23;20004;-61
2022/01/28 00:49:16;;;;;;;70.03;24.45;;;5.40;92.30;;;;;;6214648;23;20000;-63
2022/01/28 00:51:42;;;;;;;53.65;22.27;;;5.40;92.20;;;;;;6241173;23;20012;-61
2022/01/28 00:54:07;;;;;;;55.42;24.20;;;5.40;92.30;;;;;;6189402;23;20000;-61
2022/01/28 00:56:33;;;;;;;58.08;22.92;;;5.40;92.30;;;;;;6211895;23;20406;-61
2022/01/28 00:58:58;;;;;;;64.85;23.38;;;5.40;92.30;;;;;;6238616;23;20291;-61
2022/01/28 01:01:24;;;;;;;52.80;24.25;;;5.40;92.20;;;;;;6214021;23;20000;-63
2022/01/28 01:03:49;;;;;;;62.47;24.58;;;5.40;92.30;;;;;;6189458;23;20008;-60
2022/01/28 01:06:15;;;;;;;63.72;24.45;;;5.40;92.30;;;;;;6240920;23;20023;-61
2022/01/28 01:08:40;;;;;;;56.10;22.75;;;5.40;92.30;;;;;;6239341;23;20050;-61
2022/01/28 01:11:07;;;;;;;55.45;24.00;;;5.30;92.30;;;;;;6211238;23;20032;-64
2022/01/28 01:13:38;;;;;;;59.38;22.85;;;5.40;92.30;;;;;;6239877;23;20449;-64
2022/01/28 01:16:05;;;;;;;57.00;23.08;;;5.30;92.30;;;;;;6216143;23;20026;-62
2022/01/28 01:18:47;;;;;;;59.38;23.02;;;5.30;92.30;;;;;;6241393;23;20070;-64
2022/01/28 01:21:19;;;;;;;41.42;22.45;;;5.40;92.30;;;;;;6195878;23;20526;-63
2022/01/28 01:23:52;;;;;;;55.08;21.48;;;5.30;92.30;;;;;;6238742;23;20050;-62
2022/01/28 01:26:18;;;;;;;47.10;23.42;;;5.30;92.30;;;;;;6239926;23;20008;-63
2022/01/28 01:28:43;;;;;;;47.08;23.58;;;5.40;92.40;;;;;;6241230;23;20470;-64
2022/01/28 01:31:13;;;;;;;43.72;22.25;;;5.40;92.40;;;;;;6213883;23;20079;-63
2022/01/28 01:33:45;;;;;;;56.67;22.45;;;5.30;92.40;;;;;;6189584;23;20004;-60
2022/01/28 01:36:10;;;;;;;42.70;20.55;;;5.30;92.40;;;;;;6238318;23;20008;-63
2022/01/28 01:38:38;;;;;;;42.33;20.30;;;5.30;92.50;;;;;;6240396;23;20453;-63
2022/01/28 01:41:08;;;;;;;38.97;20.95;;;5.30;92.50;;;;;;6240961;23;20115;-63
2022/01/28 01:44:25;;;;;;;35.58;20.58;;;5.30;92.60;;;;;;6191297;23;20091;-61
2022/01/28 01:52:02;;;;;;;47.95;22.08;;;5.40;92.60;;;;;;6195241;23;20065;-62
2022/01/28 01:54:28;;;;;;;44.78;21.17;;;5.30;92.60;;;;;;6241182;23;19996;-61
2022/01/28 01:56:54;;;;;;;39.47;20.58;;;5.40;92.70;;;;;;6212975;23;20015;-63
2022/01/28 01:59:19;;;;;;;43.65;21.52;;;5.40;92.70;;;;;;6188822;23;20436;-64
2022/01/28 02:01:45;;;;;;;45.60;21.27;;;5.40;93.00;;;;;;6238499;23;20054;-62
2022/01/28 02:04:10;;;;;;;41.42;20.70;;;5.40;92.70;;;;;;6211577;23;20507;-64
2022/01/28 02:06:36;;;;;;;44.65;22.35;;;5.40;92.70;;;;;;6202324;23;20050;-65
2022/01/28 02:09:01;;;;;;;44.30;22.10;;;5.40;92.70;;;;;;6157114;23;20477;-62
2022/01/28 02:11:27;;;;;;;44.13;20.23;;;5.40;92.70;;;;;;6214420;23;20046;-62
2022/01/28 02:13:53;;;;;;;44.17;20.48;;;5.40;92.70;;;;;;6213819;23;20331;-62
2022/01/28 02:16:18;;;;;;;43.28;19.85;;;5.40;92.60;;;;;;6240131;23;20008;-63
2022/01/28 02:18:44;;;;;;;50.58;23.08;;;5.40;92.70;;;;;;6188790;23;20315;-63
2022/01/28 02:21:13;;;;;;;42.60;23.85;;;5.40;92.70;;;;;;6190186;23;20026;-61
2022/01/28 02:23:39;;;;;;;49.05;22.10;;;5.30;92.70;;;;;;6241266;23;20486;-61
2022/01/28 02:26:06;;;;;;;50.88;21.80;;;5.40;92.70;;;;;;6214995;23;20370;-65
2022/01/28 02:28:36;;;;;;;45.17;22.00;;;5.40;92.80;;;;;;6239065;23;20008;-63
2022/01/28 02:31:03;;;;;;;45.70;21.00;;;5.40;92.70;;;;;;6189508;23;20016;-60
2022/01/28 02:33:29;;;;;;;45.00;21.83;;;5.40;92.70;;;;;;6241050;23;20007;-63
2022/01/28 02:35:55;;;;;;;39.47;20.45;;;5.40;92.70;;;;;;6242025;23;20004;-62
2022/01/28 02:38:22;;;;;;;35.63;20.15;;;5.40;92.70;;;;;;6215107;23;20425;-61
2022/01/28 02:40:54;;;;;;;39.63;20.88;;;5.40;92.70;;;;;;6239484;23;20077;-64
2022/01/28 02:44:04;;;;;;;41.53;21.90;;;5.40;92.70;;;;;;6189263;23;20425;-65
2022/01/28 02:46:16;;;;;;;44.55;21.80;;;5.40;92.70;;;;;;6213600;23;20420;-62
2022/01/28 02:48:53;;;;;;;36.35;20.23;;;5.40;92.70;;;;;;6215148;23;20040;-63
2022/01/28 02:51:21;;;;;;;38.40;20.48;;;5.40;92.70;;;;;;6193455;23;20083;-62
2022/01/28 02:53:54;;;;;;;36.85;20.65;;;5.30;92.70;;;;;;6187421;23;20054;-62
2022/01/28 02:56:24;;;;;;;43.67;19.90;;;5.30;92.90;;;;;;6164162;23;20357;-60
2022/01/28 02:58:50;;;;;;;41.53;20.85;;;5.30;92.70;;;;;;6240847;23;20541;-61
2022/01/28 03:01:16;;;;;;;36.53;21.58;;;5.30;92.80;;;;;;6214896;23;20011;-64
2022/01/28 03:03:42;;;;;;;34.50;20.83;;;5.30;92.80;;;;;;6214439;23;20008;-63
2022/01/28 03:06:08;;;;;;;48.35;23.90;;;5.30;92.80;;;;;;6188999;23;20377;-62
2022/01/28 03:08:34;;;;;;;36.53;20.58;;;5.30;92.80;;;;;;6237517;23;20004;-64
2022/01/28 03:16:30;;;;;;;36.80;22.50;;;5.30;92.80;;;;;;6196073;23;20079;-62
2022/01/28 03:19:00;;;;;;;42.35;24.13;;;5.30;92.80;;;;;;6188222;23;20000;-62
2022/01/28 03:21:55;;;;;;;40.30;23.63;;;5.30;92.90;;;;;;6238492;23;20023;-64
2022/01/28 03:24:13;;;;;;;36.10;21.30;;;5.30;92.90;;;;;;6238877;23;20027;-64
2022/01/28 03:26:38;;;;;;;35.83;21.45;;;5.30;92.90;;;;;;6240289;23;20073;-63
2022/01/28 03:29:04;;;;;;;32.60;21.17;;;5.30;92.90;;;;;;6240228;23;20421;-64
2022/01/28 03:31:30;;;;;;;40.63;21.80;;;5.30;92.90;;;;;;6239258;23;19996;-63
2022/01/28 03:33:55;;;;;;;38.17;21.92;;;5.30;92.90;;;;;;6237481;23;20000;-63
2022/01/28 03:36:21;;;;;;;39.40;22.27;;;5.30;93.00;;;;;;6187037;23;20031;-60
2022/01/28 03:38:48;;;;;;;32.65;20.77;;;5.20;92.90;;;;;;6240556;23;19996;-64
2022/01/28 03:41:16;;;;;;;35.97;20.92;;;5.20;92.90;;;;;;6214959;23;20004;-61
2022/01/28 03:43:43;;;;;;;35.30;21.60;;;5.30;93.00;;;;;;6213505;23;20011;-60
2022/01/28 03:46:09;;;;;;;46.25;22.80;;;5.30;93.00;;;;;;6211090;23;20014;-62
2022/01/28 03:48:35;;;;;;;36.13;21.02;;;5.30;93.00;;;;;;6210996;23;20059;-62
2022/01/28 03:51:00;;;;;;;39.28;22.42;;;5.30;93.00;;;;;;6239997;23;20004;-62
2022/01/28 03:53:26;;;;;;;39.55;21.70;;;5.20;93.00;;;;;;6240029;23;20028;-63
2022/01/28 03:55:53;;;;;;;36.92;22.10;;;5.20;93.00;;;;;;6212426;23;20016;-63
2022/01/28 03:58:19;;;;;;;34.90;20.90;;;5.20;93.00;;;;;;6211891;23;20011;-63
2022/01/28 04:00:45;;;;;;;37.22;21.25;;;5.20;93.00;;;;;;6237940;23;20008;-64
2022/01/28 04:03:24;;;;;;;34.90;20.60;;;5.20;93.00;;;;;;6187061;23;20032;-63
2022/01/28 04:14:01;;;;;;;35.20;19.30;;;5.20;93.00;;;;;;6214956;23;20015;-61
2022/01/28 04:19:10;;;;;;;34.83;20.00;;;5.20;93.00;;;;;;6217228;23;20066;-64
2022/01/28 04:21:35;;;;;;;36.50;20.77;;;5.20;93.00;;;;;;6213300;23;20032;-60
2022/01/28 04:24:01;;;;;;;38.15;20.73;;;5.20;93.00;;;;;;6238826;23;20470;-62
2022/01/28 04:26:26;;;;;;;35.92;19.75;;;5.20;93.00;;;;;;6237815;23;20035;-61
2022/01/28 04:28:52;;;;;;;35.70;19.90;;;5.20;93.00;;;;;;6211577;23;20039;-63
2022/01/28 04:31:17;;;;;;;38.92;20.52;;;5.20;93.00;;;;;;6239807;23;20000;-63
2022/01/28 04:33:43;;;;;;;30.27;18.77;;;5.20;93.00;;;;;;6239631;23;20003;-64
2022/01/28 04:36:12;;;;;;;31.98;19.33;;;5.20;93.30;;;;;;6239246;23;20027;-61
2022/01/28 04:38:54;;;;;;;36.30;20.25;;;5.20;93.00;;;;;;6209921;23;20008;-64
2022/01/28 04:41:28;;;;;;;36.10;19.15;;;5.20;93.00;;;;;;6238451;23;20059;-63
2022/01/28 04:44:02;;;;;;;37.35;20.40;;;5.20;93.00;;;;;;6239499;23;19996;-64
2022/01/28 04:46:42;;;;;;;35.70;18.92;;;5.20;93.00;;;;;;6240928;23;20426;-63
2022/01/28 04:49:15;;;;;;;32.05;20.13;;;5.20;93.00;;;;;;6241567;23;20007;-61
2022/01/28 05:02:25;;;;;;;32.70;19.33;;;5.20;92.90;;;;;;6251231;23;20012;-63
2022/01/28 05:05:06;;;;;;;28.58;17.13;;;5.20;92.90;;;;;;6239096;23;20019;-62
2022/01/28 05:26:01;;;;;;;34.30;17.35;;;5.20;92.90;;;;;;6218455;23;20323;-62
2022/01/28 05:28:27;;;;;;;71.95;20.17;;;5.20;92.90;;;;;;6240570;23;20004;-64
2022/01/28 05:30:52;;;;;;;165.38;25.80;;;5.20;92.90;;;;;;6211946;23;20362;-62
2022/01/28 05:33:18;;;;;;;190.48;26.73;;;5.20;93.00;;;;;;6238647;23;20353;-64
2022/01/28 05:35:43;;;;;;;164.70;25.40;;;5.20;93.30;;;;;;6214142;23;20003;-64
2022/01/28 05:38:09;;;;;;;203.52;28.00;;;5.20;93.00;;;;;;6236911;23;20008;-64
2022/01/28 05:40:34;;;;;;;168.70;25.10;;;5.20;93.00;;;;;;6241302;23;20011;-64
2022/01/28 05:43:00;;;;;;;118.05;23.27;;;5.20;93.10;;;;;;6239390;23;20014;-64
2022/01/28 05:45:25;;;;;;;104.25;23.27;;;5.20;93.10;;;;;;6211863;23;20011;-63
2022/01/28 05:47:51;;;;;;;119.95;22.95;;;5.20;93.10;;;;;;6239997;23;20008;-64
2022/01/28 05:50:16;;;;;;;97.60;20.58;;;5.20;93.10;;;;;;6241278;23;20001;-63
2022/01/28 05:52:42;;;;;;;99.35;21.55;;;5.20;93.10;;;;;;6237503;23;20008;-63
2022/01/28 05:55:08;;;;;;;102.03;22.05;;;5.20;93.10;;;;;;6212401;23;20302;-63
2022/01/28 05:57:33;;;;;;;88.88;19.95;;;5.20;93.10;;;;;;6211023;23;20089;-60
2022/01/28 05:59:58;;;;;;;95.15;19.85;;;5.20;93.10;;;;;;6239689;23;20107;-60
2022/01/28 06:02:24;;;;;;;103.30;22.38;;;5.20;93.10;;;;;;6240356;23;20011;-65
2022/01/28 06:04:50;;;;;;;98.93;22.25;;;5.20;93.20;;;;;;6241057;23;20351;-64
2022/01/28 06:07:15;;;;;;;99.57;21.52;;;5.20;93.20;;;;;;6236557;23;20000;-61
2022/01/28 06:09:41;;;;;;;100.72;23.98;;;5.20;93.30;;;;;;6211639;23;20146;-63
2022/01/28 06:12:07;;;;;;;108.95;23.65;;;5.20;93.30;;;;;;6237961;23;20000;-64
2022/01/28 06:14:32;;;;;;;76.68;21.08;;;5.30;93.40;;;;;;6241040;23;20426;-63
2022/01/28 06:16:58;;;;;;;94.20;19.88;;;5.20;93.40;;;;;;6188148;23;20000;-60
2022/01/28 06:19:24;;;;;;;98.65;21.95;;;5.20;93.30;;;;;;6240849;23;20000;-61
2022/01/28 06:21:49;;;;;;;93.95;21.52;;;5.30;93.40;;;;;;6235644;23;20000;-63
2022/01/28 06:24:15;;;;;;;90.57;22.67;;;5.10;93.40;;;;;;6211365;23;20035;-62
2022/01/28 06:26:41;;;;;;;105.43;22.55;;;5.30;93.40;;;;;;6211943;23;20064;-60
2022/01/28 06:29:06;;;;;;;86.80;20.80;;;5.30;93.40;;;;;;6188075;23;20000;-61
2022/01/28 06:31:32;;;;;;;82.22;20.27;;;5.30;93.30;;;;;;6241038;23;20295;-62
2022/01/28 06:33:58;;;;;;;82.25;20.25;;;5.30;93.30;;;;;;6240613;23;20429;-62
2022/01/28 06:36:23;;;;;;;85.85;20.52;;;5.30;93.30;;;;;;6212333;23;20004;-62
2022/01/28 06:38:49;;;;;;;83.15;18.90;;;5.30;93.20;;;;;;6212849;23;20009;-63
2022/01/28 06:41:15;;;;;;;93.15;19.52;;;5.30;93.20;;;;;;6214428;23;20004;-62
2022/01/28 06:43:40;;;;;;;68.75;18.40;;;5.30;93.20;;;;;;6239824;23;20057;-64
2022/01/28 06:46:06;;;;;;;67.90;20.25;;;5.30;93.20;;;;;;6238490;23;20404;-62
2022/01/28 06:48:31;;;;;;;85.95;19.75;;;5.20;93.20;;;;;;6236213;23;20008;-62
2022/01/28 06:50:57;;;;;;;105.20;20.17;;;5.30;93.20;;;;;;6210135;23;20008;-61
2022/01/28 06:53:22;;;;;;;86.03;19.75;;;5.30;93.30;;;;;;6237819;23;20335;-63
2022/01/28 06:55:48;;;;;;;106.82;20.92;;;5.30;93.30;;;;;;6239029;23;20508;-62
2022/01/28 06:58:13;;;;;;;86.05;21.67;;;5.30;93.30;;;;;;6238904;23;20000;-61
2022/01/28 07:00:40;;;;;;;99.07;22.20;;;5.30;93.40;;;;;;6238954;23;20000;-64
2022/01/28 07:03:06;;;;;;;72.60;19.00;;;5.30;93.40;;;;;;6184269;23;20434;-61
2022/01/28 07:05:31;;;;;;;75.43;18.88;;;5.30;93.30;;;;;;6237286;23;20020;-64
2022/01/28 07:07:57;;;;;;;68.63;19.73;;;5.30;93.30;;;;;;6209609;23;20054;-61
2022/01/28 07:10:23;;;;;;;64.00;17.33;;;5.30;93.30;;;;;;6239486;23;20030;-64
2022/01/28 07:12:49;;;;;;;61.92;19.17;;;5.30;93.30;;;;;;6212387;23;20000;-62
2022/01/28 07:15:15;;;;;;;82.10;19.05;;;5.30;93.30;;;;;;6210238;23;20000;-64
2022/01/28 07:17:40;;;;;;;69.78;19.55;;;5.30;93.30;;;;;;6236800;23;20405;-63
2022/01/28 07:20:07;;;;;;;66.30;17.33;;;5.30;93.30;;;;;;6237915;23;20016;-61
2022/01/28 07:22:32;;;;;;;55.28;16.92;;;5.30;93.40;;;;;;6212240;23;20004;-62
2022/01/28 07:24:58;;;;;;;56.08;17.88;;;5.30;93.40;;;;;;6239159;23;20011;-62
2022/01/28 07:27:23;;;;;;;67.32;16.52;;;5.30;93.40;;;;;;6237143;23;20011;-64
2022/01/28 07:29:50;;;;;;;51.75;16.70;;;5.30;93.50;;;;;;6234770;23;20008;-61
2022/01/28 07:32:16;;;;;;;70.07;16.40;;;5.30;93.50;;;;;;6208222;23;19996;-64
2022/01/28 07:34:41;;;;;;;58.30;17.98;;;5.30;93.50;;;;;;6211704;23;20299;-61
2022/01/28 07:37:07;;;;;;;50.33;16.50;;;5.30;93.50;;;;;;6238255;23;20130;-61
2022/01/28 07:39:32;;;;;;;50.72;16.10;;;5.30;93.50;;;;;;6238320;23;20008;-61
2022/01/28 07:41:58;;;;;;;58.90;15.68;;;5.30;93.50;;;;;;6184975;23;20016;-63
2022/01/28 07:44:23;;;;;;;49.80;16.42;;;5.30;93.50;;;;;;6236677;23;20613;-60
2022/01/28 07:46:49;;;;;;;50.13;15.43;;;5.30;93.50;;;;;;6211573;23;20340;-60
2022/01/28 07:49:15;;;;;;;44.92;15.45;;;5.30;93.50;;;;;;6238320;23;20456;-61
2022/01/28 07:51:41;;;;;;;40.85;14.82;;;5.30;93.50;;;;;;6239615;23;20007;-60
2022/01/28 07:54:07;;;;;;;41.00;14.05;;;5.30;93.50;;;;;;6209745;23;20301;-63
2022/01/28 07:56:33;;;;;;;38.28;14.13;;;5.30;93.50;;;;;;6158885;23;20027;-62
2022/01/28 07:58:58;;;;;;;47.17;14.98;;;5.30;93.50;;;;;;6159746;23;20318;-63
2022/01/28 08:01:24;;;;;;;37.92;15.30;;;5.30;93.50;;;;;;6185423;23;20338;-62
2022/01/28 08:03:49;;;;;;;52.00;15.85;;;5.30;93.50;;;;;;6185831;23;20000;-63
2022/01/28 08:06:15;;;;;;;39.30;14.23;;;5.30;93.50;;;;;;6185494;23;20000;-63
2022/01/28 08:08:40;;;;;;;37.90;14.27;;;5.30;93.50;;;;;;6160112;23;20004;-64
2022/01/28 08:11:06;;;;;;;44.85;16.15;;;5.30;93.80;;;;;;6159423;23;20011;-65
2022/01/28 08:13:32;;;;;;;33.75;14.15;;;5.30;93.60;;;;;;6187018;23;20122;-63
2022/01/28 08:15:58;;;;;;;51.65;14.02;;;5.30;93.60;;;;;;6212059;23;20001;-63
2022/01/28 08:18:23;;;;;;;40.05;14.18;;;5.30;93.90;;;;;;6186320;23;20000;-62
2022/01/28 08:20:49;;;;;;;37.80;14.50;;;5.30;93.60;;;;;;6185354;23;20491;-62
2022/01/28 08:23:14;;;;;;;44.55;15.00;;;5.30;93.60;;;;;;6211471;23;20014;-62
2022/01/28 08:25:40;;;;;;;37.13;14.07;;;5.30;93.50;;;;;;6241654;23;20330;-63
2022/01/28 08:28:05;;;;;;;32.88;13.32;;;5.30;93.50;;;;;;6213906;23;20003;-62
2022/01/28 08:30:31;;;;;;;35.92;14.50;;;5.30;93.60;;;;;;6240317;23;20001;-62
2022/01/28 08:32:56;;;;;;;35.53;14.15;;;5.30;93.60;;;;;;6237784;23;20000;-62
2022/01/28 08:35:29;;;;;;;31.67;13.02;;;5.30;93.60;;;;;;6212392;23;20093;-61
2022/01/28 08:37:56;;;;;;;44.70;13.80;;;5.40;93.70;;;;;;6213003;23;20000;-64
2022/01/28 08:40:22;;;;;;;61.47;15.50;;;5.30;93.70;;;;;;6214186;23;20011;-61
2022/01/28 08:42:47;;;;;;;44.78;13.60;;;5.40;93.70;;;;;;6213898;23;20000;-61
2022/01/28 08:45:12;;;;;;;33.15;13.40;;;5.30;93.70;;;;;;6212708;23;20058;-62
2022/01/28 08:47:38;;;;;;;33.42;13.35;;;5.40;93.70;;;;;;6238026;23;20097;-65
2022/01/28 08:50:04;;;;;;;44.88;14.05;;;5.40;93.70;;;;;;6211778;23;20163;-60
2022/01/28 08:52:29;;;;;;;83.90;16.77;;;5.40;93.80;;;;;;6188774;23;20008;-62
2022/01/28 08:54:55;;;;;;;66.90;14.95;;;5.40;93.80;;;;;;6240212;23;20471;-63
2022/01/28 08:57:20;;;;;;;39.97;14.20;;;5.40;93.90;;;;;;6212999;23;20446;-64
2022/01/28 08:59:46;;;;;;;41.30;13.00;;;5.40;93.80;;;;;;6238074;23;20103;-64
2022/01/28 09:02:11;;;;;;;37.10;13.85;;;5.40;93.80;;;;;;6211310;23;20039;-59
2022/01/28 09:04:37;;;;;;;40.97;14.13;;;5.40;93.80;;;;;;6187859;23;20090;-61
2022/01/28 09:07:03;;;;;;;39.75;14.18;;;5.40;93.80;;;;;;6162418;23;20003;-62
2022/01/28 09:09:29;;;;;;;46.53;14.40;;;5.40;93.80;;;;;;6212160;23;20007;-60
2022/01/28 09:14:23;;;;;;;43.53;13.40;;;5.40;93.70;;;;;;6211228;23;20008;-63
2022/01/28 09:16:48;;;;;;;48.53;13.55;;;5.40;93.70;;;;;;6239344;23;20122;-60
2022/01/28 09:19:14;;;;;;;57.25;14.75;;;5.40;93.70;;;;;;6186919;23;20031;-63
2022/01/28 09:21:40;;;;;;;53.45;13.93;;;5.40;93.70;;;;;;6212836;23;20000;-63
2022/01/28 09:24:06;;;;;;;56.65;13.00;;;5.40;93.60;;;;;;6239711;23;20004;-61
2022/01/28 09:26:31;;;;;;;39.13;12.60;;;5.50;93.70;;;;;;6210102;23;20377;-63
2022/01/28 09:28:57;;;;;;;40.45;13.00;;;5.50;93.70;;;;;;6160378;23;20377;-62
2022/01/28 09:31:23;;;;;;;59.42;14.75;;;5.50;93.70;;;;;;6239545;23;20000;-62
2022/01/28 09:33:49;;;;;;;46.47;12.85;;;5.50;93.80;;;;;;6239343;23;20036;-63
2022/01/28 09:36:14;;;;;;;48.05;13.10;;;5.50;93.80;;;;;;6212571;23;20043;-63
2022/01/28 09:38:40;;;;;;;44.63;12.45;;;5.50;93.80;;;;;;6236938;23;20004;-61
2022/01/28 09:41:07;;;;;;;64.30;15.15;;;5.50;93.80;;;;;;6209339;23;20008;-59
2022/01/28 09:43:32;;;;;;;49.10;14.18;;;5.50;94.00;;;;;;6187639;23;20027;-62
2022/01/28 09:45:58;;;;;;;56.60;14.15;;;5.60;94.10;;;;;;6161066;23;20007;-64
2022/01/28 09:48:24;;;;;;;57.75;14.65;;;5.60;94.00;;;;;;6186971;23;20011;-63
2022/01/28 09:50:50;;;;;;;45.20;13.73;;;5.60;94.00;;;;;;6211568;23;20032;-65
2022/01/28 09:53:17;;;;;;;49.65;12.63;;;5.60;94.00;;;;;;6185345;23;20202;-61
2022/01/28 09:55:45;;;;;;;53.20;14.23;;;5.60;93.90;;;;;;6210510;23;20008;-61
2022/01/28 09:58:11;;;;;;;85.63;17.10;;;5.70;94.00;;;;;;6163596;23;20028;-60
2022/01/28 10:00:36;;;;;;;63.50;15.25;;;5.70;94.10;;;;;;6186950;23;20008;-64
2022/01/28 10:03:06;;;;;;;46.10;15.05;;;5.70;94.20;;;;;;6185276;23;20015;-62
2022/01/28 10:05:36;;;;;;;67.63;14.90;;;5.70;94.20;;;;;;6209416;23;20071;-61
2022/01/28 10:08:09;;;;;;;49.65;13.32;;;5.70;94.30;;;;;;6209464;23;20012;-62
2022/01/28 10:10:47;;;;;;;37.22;13.93;;;5.70;94.40;;;;;;6209273;23;20005;-61
2022/01/28 10:13:17;;;;;;;39.22;13.05;;;5.70;94.30;;;;;;6186895;23;20004;-62
2022/01/28 10:16:07;;;;;;;64.32;15.38;;;5.70;94.30;;;;;;6238660;23;20004;-64
2022/01/28 10:18:52;;;;;;;53.72;14.65;;;5.80;94.50;;;;;;6236523;23;20063;-64
2022/01/28 10:21:22;;;;;;;54.55;15.77;;;5.80;94.60;;;;;;6186821;23;20011;-61
2022/01/28 10:23:59;;;;;;;69.95;15.18;;;5.80;94.70;;;;;;6236539;23;20220;-63
2022/01/28 10:26:34;;;;;;;61.25;15.98;;;5.80;94.70;;;;;;6211452;23;20054;-65
2022/01/28 10:29:00;;;;;;;42.83;14.45;;;5.90;94.90;;;;;;6187645;23;20313;-62
2022/01/28 10:31:35;;;;;;;45.45;14.02;;;5.90;94.80;;;;;;6209499;23;20071;-62
2022/01/28 10:34:10;;;;;;;;;;;5.90;94.70;;;;;;6237021;23;20299;-63
2022/01/28 10:36:36;;;;;;;57.95;14.80;;;5.90;94.80;;;;;;6236822;23;20323;-60
2022/01/28 10:39:01;;;;;;;68.72;15.55;;;5.90;94.80;;;;;;6185772;23;19992;-63
2022/01/28 10:41:27;;;;;;;61.15;16.05;;;5.90;94.80;;;;;;6211360;23;20184;-60
2022/01/28 10:43:55;;;;;;;61.78;16.23;;;5.90;94.90;;;;;;6236237;23;20004;-60
2022/01/28 10:46:30;;;;;;;49.75;14.32;;;5.90;94.80;;;;;;6159687;23;20334;-64
2022/01/28 10:49:03;;;;;;;60.55;17.10;;;5.90;94.90;;;;;;6235108;23;20015;-62
2022/01/28 10:51:42;;;;;;;73.97;16.45;;;5.90;94.90;;;;;;6186117;23;20008;-64
2022/01/28 10:54:12;;;;;;;80.70;17.13;;;5.90;94.90;;;;;;6237736;23;19996;-61
2022/01/28 10:56:46;;;;;;;77.28;18.10;;;6.00;95.00;;;;;;6181835;23;20301;-62
2022/01/28 10:59:12;;;;;;;157.05;21.20;;;5.90;95.00;;;;;;6208306;23;20255;-62
2022/01/28 11:01:37;;;;;;;83.05;19.67;;;6.00;95.20;;;;;;6183536;23;20000;-61
2022/01/28 11:04:03;;;;;;;100.85;19.00;;;6.00;95.20;;;;;;6210558;23;20028;-60
2022/01/28 11:06:28;;;;;;;98.03;19.83;;;6.00;95.20;;;;;;6185998;23;20433;-61
2022/01/28 11:08:54;;;;;;;84.93;20.58;;;6.00;95.20;;;;;;6184024;23;20008;-60
2022/01/28 11:11:19;;;;;;;104.45;19.63;;;6.00;95.30;;;;;;6207757;23;20019;-61
2022/01/28 11:13:45;;;;;;;98.72;19.17;;;6.00;95.30;;;;;;6209482;23;20429;-63
2022/01/28 11:16:10;;;;;;;96.65;18.70;;;6.00;95.30;;;;;;6209584;23;20003;-63
2022/01/28 11:18:36;;;;;;;107.60;21.10;;;6.00;95.30;;;;;;6185543;23;20229;-63
2022/01/28 11:21:06;;;;;;;89.85;18.25;;;6.00;95.30;;;;;;6210674;23;20079;-62
2022/01/28 11:23:51;;;;;;;103.20;19.48;;;6.10;95.40;;;;;;6235722;23;20024;-63
2022/01/28 11:26:21;;;;;;;104.40;19.40;;;6.10;95.40;;;;;;6210162;23;20008;-63
2022/01/28 11:28:51;;;;;;;111.70;21.20;;;6.10;95.40;;;;;;6233905;23;20004;-62
2022/01/28 11:31:46;;;;;;;116.32;20.77;;;6.20;95.50;;;;;;6183010;23;20058;-63
2022/01/28 11:34:18;;;;;;;91.82;20.92;;;6.20;95.50;;;;;;6235668;23;20508;-61
2022/01/28 11:36:44;;;;;;;95.55;20.05;;;6.20;95.50;;;;;;6234234;23;20007;-60
2022/01/28 11:39:33;;;;;;;110.70;19.65;;;6.20;95.50;;;;;;6206132;23;20436;-61
2022/01/28 11:42:06;;;;;;;99.80;19.90;;;6.20;95.50;;;;;;6206640;23;20024;-61
2022/01/28 11:44:50;;;;;;;112.68;20.38;;;6.20;95.40;;;;;;6234760;23;19996;-61
2022/01/28 11:47:31;;;;;;;79.00;18.85;;;6.20;95.40;;;;;;6234197;23;20118;-63
2022/01/28 11:50:10;;;;;;;94.75;19.77;;;6.20;95.50;;;;;;6207224;23;20022;-61
2022/01/28 11:52:49;;;;;;;87.65;18.98;;;6.20;95.50;;;;;;6230855;23;20000;-61
2022/01/28 11:55:15;;;;;;;83.32;18.73;;;6.30;95.60;;;;;;6231732;23;20394;-63
2022/01/28 11:57:57;;;;;;;97.43;19.02;;;6.30;95.60;;;;;;6226665;23;20018;-63
2022/01/28 12:00:35;;;;;;;93.57;19.40;;;6.30;95.60;;;;;;6230742;23;20012;-64
2022/01/28 12:03:02;;;;;;;96.50;19.65;;;6.30;95.60;;;;;;6232408;23;20055;-62
2022/01/28 12:05:31;;;;;;;89.93;18.45;;;6.30;95.60;;;;;;6207327;23;20012;-65
2022/01/28 12:07:57;;;;;;;67.53;17.20;;;6.30;95.50;;;;;;6233516;23;20391;-64
2022/01/28 12:10:23;;;;;;;78.97;18.02;;;6.40;95.60;;;;;;6183591;23;20004;-63
2022/01/28 12:13:04;;;;;;;80.20;18.13;;;6.40;95.50;;;;;;6236941;23;19996;-60
2022/01/28 12:15:31;;;;;;;86.22;19.75;;;6.40;95.50;;;;;;6210113;23;20798;-64
2022/01/28 12:18:10;;;;;;;145.02;22.75;;;6.40;95.50;;;;;;6160115;23;20004;-63
2022/01/28 12:20:42;;;;;;;76.88;19.13;;;6.40;95.60;;;;;;6185766;23;20323;-63
2022/01/28 12:23:11;;;;;;;85.95;18.88;;;6.50;95.70;;;;;;6207707;23;20008;-60
2022/01/28 12:25:36;;;;;;;80.18;19.02;;;6.40;95.70;;;;;;6236923;23;20015;-62
2022/01/28 12:28:18;;;;;;;120.80;20.35;;;6.50;96.10;;;;;;6233898;23;20067;-61
2022/01/28 12:30:45;;;;;;;116.88;19.83;;;6.50;95.80;;;;;;6233024;23;20035;-60
2022/01/28 12:33:11;;;;;;;104.30;22.05;;;6.50;95.80;;;;;;6181925;23;20000;-61
2022/01/28 12:35:40;;;;;;;76.00;18.67;;;6.50;95.80;;;;;;6234427;23;20007;-64
2022/01/28 12:38:06;;;;;;;96.68;19.33;;;6.50;95.70;;;;;;6177512;23;20030;-65
2022/01/28 12:40:36;;;;;;;67.68;17.38;;;6.50;95.60;;;;;;6206264;23;20430;-64
2022/01/28 12:43:04;;;;;;;101.78;19.08;;;6.50;95.60;;;;;;6231480;23;20004;-60
2022/01/28 12:45:30;;;;;;;91.82;18.30;;;6.50;95.50;;;;;;6233970;23;20052;-62
2022/01/28 12:47:56;;;;;;;107.68;20.63;;;6.50;95.50;;;;;;6206328;23;20079;-61
2022/01/28 12:50:22;;;;;;;82.03;18.60;;;6.50;95.50;;;;;;6207710;23;20004;-62
2022/01/28 12:52:48;;;;;;;74.88;17.85;;;6.60;95.50;;;;;;6181748;23;20019;-61
2022/01/28 12:55:14;;;;;;;92.30;19.65;;;6.60;95.40;;;;;;6208433;23;20004;-61
2022/01/28 12:57:43;;;;;;;75.75;18.88;;;6.60;95.40;;;;;;6204743;23;20024;-63
2022/01/28 13:00:09;;;;;;;66.75;16.80;;;6.60;95.40;;;;;;6206874;23;20095;-61
2022/01/28 13:02:35;;;;;;;85.78;17.35;;;6.60;95.30;;;;;;6207608;23;20004;-64
2022/01/28 13:10:19;;;;;;;;;;;6.60;95.20;;;;;;6213319;23;20516;-64
2022/01/28 13:12:45;;;;;;;85.70;16.80;;;6.60;95.10;;;;;;6236998;23;19918;-64
2022/01/28 13:15:11;;;;;;;72.68;19.00;;;6.60;95.10;;;;;;6176611;23;20573;-63
2022/01/28 13:17:38;;;;;;;69.50;15.75;;;6.60;95.00;;;;;;6209368;23;19996;-64
2022/01/28 13:20:06;;;;;;;98.57;18.20;;;6.60;95.00;;;;;;6236560;23;20008;-61
2022/01/28 13:22:31;;;;;;;85.05;16.85;;;6.60;95.10;;;;;;6231018;23;20466;-63
2022/01/28 13:24:57;;;;;;;85.53;16.42;;;6.60;95.10;;;;;;6237122;23;20142;-63
2022/01/28 13:27:39;;;;;;;84.72;18.42;;;6.70;95.10;;;;;;6237301;23;20008;-62
2022/01/28 13:30:15;;;;;;;91.47;17.15;;;6.70;95.30;;;;;;6215086;23;20422;-62
2022/01/28 13:32:44;;;;;;;80.97;17.52;;;6.70;95.30;;;;;;6211897;23;20026;-61
2022/01/28 13:35:16;;;;;;;75.32;15.35;;;6.70;95.10;;;;;;6209360;23;20009;-62
2022/01/28 13:37:56;;;;;;;51.00;13.57;;;6.70;95.00;;;;;;6211580;23;20024;-63
2022/01/28 13:40:26;;;;;;;106.65;17.85;;;6.80;94.80;;;;;;6213226;23;20461;-62
2022/01/28 13:43:12;;;;;;;75.28;15.52;;;6.80;94.70;;;;;;6212824;23;20365;-64
2022/01/28 13:45:54;;;;;;;97.57;15.82;;;6.80;94.60;;;;;;6212087;23;20004;-61
2022/01/28 13:48:22;;;;;;;60.13;13.60;;;6.80;94.50;;;;;;6237345;23;20304;-63
2022/01/28 13:50:49;;;;;;;83.68;15.93;;;6.80;94.40;;;;;;6211659;23;20015;-62
2022/01/28 13:53:32;;;;;;;85.80;14.65;;;6.80;94.30;;;;;;6186647;23;20120;-62
2022/01/28 13:56:02;;;;;;;73.55;15.75;;;6.80;94.30;;;;;;6215724;23;20000;-60
2022/01/28 13:58:28;;;;;;;78.95;16.30;;;6.80;94.20;;;;;;6239865;23;20023;-63
2022/01/28 14:00:53;;;;;;;69.38;14.25;;;6.80;94.50;;;;;;6184934;23;20015;-61
2022/01/28 14:03:26;;;;;;;68.47;16.00;;;6.80;94.20;;;;;;6236936;23;20115;-61